Time;durP1;ratioP1;P1;durP2;ratioP2;P2;SDS_P1;SDS_P2;PMS_P1;PMS_P2;Temp;Humidity;BMP_temperature;BMP_pressure;BME280_temperature;BME280_humidity;BME280_pressure;Samples;Min_cycle;Max_cycle;Signal;HPM_P1;HPM_P2
2021/07/15 00:00:42;;;;;;;19.75;8.82;;;19.30;99.90;;;;;;5130505;27;20031;-81
2021/07/15 00:03:11;;;;;;;14.13;8.68;;;19.30;99.90;;;;;;5130787;27;20016;-81
2021/07/15 00:05:39;;;;;;;11.98;8.52;;;19.10;99.90;;;;;;5129336;27;20016;-81
2021/07/15 00:08:12;;;;;;;17.77;8.25;;;19.00;99.90;;;;;;5130191;27;20495;-81
2021/07/15 00:10:43;;;;;;;13.68;8.10;;;18.80;99.90;;;;;;5130539;27;20071;-83
2021/07/15 00:13:09;;;;;;;8.35;6.13;;;18.60;99.90;;;;;;5129220;28;20020;-82
2021/07/15 00:15:38;;;;;;;9.90;5.78;;;18.60;99.90;;;;;;5129214;28;20019;-82
2021/07/15 00:18:06;;;;;;;8.40;6.28;;;18.60;99.90;;;;;;5128991;28;20020;-82
2021/07/15 00:20:36;;;;;;;9.93;6.60;;;18.60;99.90;;;;;;5129374;28;20046;-82
2021/07/15 00:23:02;;;;;;;10.30;7.35;;;18.70;99.90;;;;;;5128355;28;20035;-82
2021/07/15 00:25:28;;;;;;;11.82;6.72;;;18.80;99.90;;;;;;5130060;27;20019;-83
2021/07/15 00:27:54;;;;;;;9.15;6.22;;;18.80;99.90;;;;;;5129958;27;20031;-82
2021/07/15 00:30:19;;;;;;;8.25;5.55;;;18.80;99.90;;;;;;5129950;27;20500;-82
2021/07/15 00:32:45;;;;;;;11.77;6.68;;;18.80;99.90;;;;;;5128874;27;20027;-82
2021/07/15 00:35:12;;;;;;;10.18;6.13;;;18.70;99.90;;;;;;5128766;27;20031;-82
2021/07/15 00:37:38;;;;;;;8.25;5.30;;;18.60;99.90;;;;;;5128791;27;20016;-82
2021/07/15 00:40:07;;;;;;;10.05;5.82;;;18.50;99.90;;;;;;5128332;27;20111;-82
2021/07/15 00:42:33;;;;;;;10.75;5.28;;;18.50;99.90;;;;;;5114857;28;20040;-82
2021/07/15 00:44:58;;;;;;;10.75;5.32;;;18.40;99.90;;;;;;5114310;28;20425;-82
2021/07/15 00:47:24;;;;;;;7.03;4.40;;;18.50;99.90;;;;;;5116203;28;20027;-82
2021/07/15 00:49:50;;;;;;;8.77;4.45;;;18.40;99.90;;;;;;5116058;28;20035;-82
2021/07/15 00:52:15;;;;;;;7.63;5.07;;;18.30;99.90;;;;;;5114828;28;20502;-82
2021/07/15 00:54:42;;;;;;;8.13;4.20;;;18.20;99.90;;;;;;5116266;28;20461;-82
2021/07/15 00:57:08;;;;;;;9.13;5.72;;;18.20;99.90;;;;;;5114287;28;20027;-82
2021/07/15 00:59:34;;;;;;;6.35;4.95;;;18.20;99.90;;;;;;5114406;28;20111;-82
2021/07/15 01:02:01;;;;;;;9.55;5.43;;;18.20;99.90;;;;;;5115559;27;20019;-82
2021/07/15 01:04:27;;;;;;;15.35;6.35;;;18.20;99.90;;;;;;5115322;28;20034;-82
2021/07/15 01:06:53;;;;;;;8.30;5.88;;;18.10;99.90;;;;;;5115612;28;20015;-82
2021/07/15 01:09:19;;;;;;;9.10;5.95;;;18.20;99.90;;;;;;5114343;28;20039;-83
2021/07/15 01:12:05;;;;;;;20.67;6.57;;;18.10;99.90;;;;;;5114810;28;20519;-82
2021/07/15 01:14:38;;;;;;;12.00;7.13;;;18.20;99.90;;;;;;5114432;28;20065;-82
2021/07/15 01:17:14;;;;;;;13.77;6.40;;;18.10;99.90;;;;;;5114074;28;20019;-82
2021/07/15 01:19:57;;;;;;;10.48;6.28;;;18.20;99.90;;;;;;5115592;28;20030;-82
2021/07/15 01:22:30;;;;;;;14.85;6.38;;;18.10;99.90;;;;;;5114356;28;20023;-83
2021/07/15 01:25:20;;;;;;;9.02;6.07;;;18.20;99.90;;;;;;5114023;28;20024;-83
2021/07/15 01:28:10;;;;;;;13.98;6.53;;;18.10;99.90;;;;;;5115309;28;20430;-82
2021/07/15 01:30:41;;;;;;;11.50;6.65;;;18.20;99.90;;;;;;5115124;28;20039;-82
2021/07/15 01:33:30;;;;;;;12.67;8.00;;;18.20;99.90;;;;;;5114180;28;20020;-82
2021/07/15 01:36:09;;;;;;;18.98;6.93;;;18.20;99.90;;;;;;5115013;28;20027;-82
2021/07/15 01:38:46;;;;;;;17.17;6.75;;;18.20;99.90;;;;;;5114039;28;20077;-82
2021/07/15 01:41:36;;;;;;;7.53;5.65;;;18.10;99.90;;;;;;5114956;28;20148;-82
2021/07/15 01:44:05;;;;;;;15.85;6.70;;;18.10;99.90;;;;;;5093454;28;20122;-82
2021/07/15 01:46:32;;;;;;;9.38;6.00;;;18.10;99.90;;;;;;5109938;28;20484;-82
2021/07/15 01:48:57;;;;;;;10.38;5.57;;;18.10;99.90;;;;;;5113485;28;20035;-82
2021/07/15 01:51:24;;;;;;;9.63;5.68;;;18.10;99.90;;;;;;5113658;28;20020;-82
2021/07/15 01:53:51;;;;;;;10.68;5.50;;;18.10;99.90;;;;;;5113864;28;20020;-82
2021/07/15 01:56:18;;;;;;;11.65;5.40;;;18.20;99.90;;;;;;5113126;28;20380;-82
2021/07/15 01:58:45;;;;;;;9.52;5.30;;;18.20;99.90;;;;;;5113330;28;20032;-82
2021/07/15 02:01:12;;;;;;;11.50;5.65;;;18.20;99.90;;;;;;5113412;28;20236;-82
2021/07/15 02:03:48;;;;;;;7.88;4.95;;;18.30;99.90;;;;;;5114750;28;20119;-82
2021/07/15 02:06:15;;;;;;;9.25;5.78;;;18.30;99.90;;;;;;5114533;28;20107;-82
2021/07/15 02:08:43;;;;;;;8.10;4.90;;;18.40;99.90;;;;;;5113221;28;20023;-82
2021/07/15 02:11:11;;;;;;;9.65;5.00;;;18.30;99.90;;;;;;5114516;28;20077;-82
2021/07/15 02:13:37;;;;;;;12.85;5.70;;;18.30;99.90;;;;;;5112730;28;20028;-83
2021/07/15 02:16:04;;;;;;;10.57;5.03;;;18.30;99.90;;;;;;5112671;28;20027;-83
2021/07/15 02:18:29;;;;;;;8.05;5.05;;;18.40;99.90;;;;;;5113407;28;20488;-83
2021/07/15 02:20:57;;;;;;;9.93;4.70;;;18.40;99.90;;;;;;5114009;28;20066;-83
2021/07/15 02:23:23;;;;;;;12.20;4.90;;;18.30;99.90;;;;;;5114324;28;20543;-83
2021/07/15 02:25:51;;;;;;;7.55;4.80;;;18.30;99.90;;;;;;5112673;28;20028;-83
2021/07/15 02:28:20;;;;;;;10.05;5.70;;;18.30;99.90;;;;;;5112971;28;20023;-83
2021/07/15 02:30:49;;;;;;;8.23;4.40;;;18.30;99.90;;;;;;5113813;28;20040;-83
2021/07/15 02:33:19;;;;;;;9.77;4.78;;;18.20;99.90;;;;;;5114183;28;20023;-83
2021/07/15 02:35:51;;;;;;;7.38;4.80;;;18.20;99.90;;;;;;5114305;28;20129;-83
2021/07/15 02:38:22;;;;;;;8.02;5.13;;;18.20;99.90;;;;;;5112665;28;20020;-83
2021/07/15 02:40:49;;;;;;;6.10;5.20;;;18.30;99.90;;;;;;5112633;28;20115;-83
2021/07/15 02:43:15;;;;;;;7.95;4.90;;;18.30;99.90;;;;;;5114106;28;20012;-83
2021/07/15 02:45:41;;;;;;;9.82;5.25;;;18.30;99.90;;;;;;5112071;28;20039;-82
2021/07/15 02:48:06;;;;;;;8.27;4.10;;;18.30;99.90;;;;;;5112333;28;20016;-82
2021/07/15 02:50:32;;;;;;;10.50;5.50;;;18.30;99.90;;;;;;5113460;28;20054;-83
2021/07/15 02:52:59;;;;;;;8.05;5.47;;;18.30;99.90;;;;;;5113670;28;20404;-83
2021/07/15 02:55:26;;;;;;;10.00;6.05;;;18.30;99.90;;;;;;5112178;28;20031;-83
2021/07/15 02:58:01;;;;;;;7.65;4.68;;;18.30;99.90;;;;;;5113676;28;20050;-82
2021/07/15 03:00:31;;;;;;;6.60;4.55;;;18.30;99.90;;;;;;5113315;28;20442;-82
2021/07/15 03:02:59;;;;;;;8.88;5.15;;;18.30;99.90;;;;;;5113950;28;20419;-82
2021/07/15 03:05:28;;;;;;;7.97;4.63;;;18.30;99.90;;;;;;5113353;27;20020;-82
2021/07/15 03:08:04;;;;;;;7.22;4.90;;;18.30;99.90;;;;;;5111885;28;20526;-83
2021/07/15 03:10:31;;;;;;;10.90;4.82;;;18.30;99.90;;;;;;5091792;28;20036;-83
2021/07/15 03:12:57;;;;;;;8.73;4.88;;;18.40;99.90;;;;;;5091820;28;20118;-83
2021/07/15 03:15:25;;;;;;;8.00;4.38;;;18.30;99.90;;;;;;5091832;28;20081;-83
2021/07/15 03:17:52;;;;;;;12.80;4.97;;;18.30;99.90;;;;;;5091778;28;20115;-83
2021/07/15 03:20:24;;;;;;;9.02;4.65;;;18.40;99.90;;;;;;5094548;28;20028;-83
2021/07/15 03:22:54;;;;;;;11.57;5.27;;;18.40;99.90;;;;;;5113391;28;20024;-83
2021/07/15 03:25:21;;;;;;;11.07;6.50;;;18.30;99.90;;;;;;5113104;28;20272;-83
2021/07/15 03:27:50;;;;;;;11.20;7.00;;;18.30;99.90;;;;;;5113314;28;20034;-83
2021/07/15 03:30:17;;;;;;;12.82;7.35;;;18.30;99.90;;;;;;5112749;28;20523;-83
2021/07/15 03:32:46;;;;;;;9.18;6.97;;;18.30;99.90;;;;;;5111963;28;20510;-83
2021/07/15 03:35:13;;;;;;;12.50;6.72;;;18.30;99.90;;;;;;5112911;28;20023;-83
2021/07/15 03:37:41;;;;;;;14.23;8.60;;;18.30;99.90;;;;;;5112008;28;20403;-83
2021/07/15 03:40:09;;;;;;;13.85;8.35;;;18.30;99.90;;;;;;5111992;28;20027;-82
2021/07/15 03:42:37;;;;;;;9.77;7.15;;;18.40;99.90;;;;;;5113139;28;20065;-83
2021/07/15 03:45:03;;;;;;;18.88;9.02;;;18.40;99.90;;;;;;5111476;28;20032;-83
2021/07/15 03:47:29;;;;;;;16.40;8.80;;;18.40;99.90;;;;;;5113034;28;20392;-83
2021/07/15 03:49:56;;;;;;;14.00;8.45;;;18.30;99.90;;;;;;5112730;28;20027;-83
2021/07/15 03:52:23;;;;;;;15.55;8.35;;;18.30;99.90;;;;;;5111000;28;20023;-83
2021/07/15 03:54:50;;;;;;;14.43;7.07;;;18.30;99.90;;;;;;5110812;28;20544;-82
2021/07/15 03:57:19;;;;;;;14.40;7.85;;;18.30;99.90;;;;;;5111272;28;20529;-83
2021/07/15 03:59:48;;;;;;;10.82;7.55;;;18.30;99.90;;;;;;5112793;28;20032;-83
2021/07/15 04:02:16;;;;;;;10.60;6.40;;;18.30;99.90;;;;;;5113053;28;20019;-83
2021/07/15 04:04:46;;;;;;;12.13;7.50;;;18.30;99.90;;;;;;5111631;28;20057;-83
2021/07/15 04:07:13;;;;;;;10.73;7.25;;;18.30;99.90;;;;;;5111753;28;20028;-83
2021/07/15 04:09:40;;;;;;;12.70;7.25;;;18.30;99.90;;;;;;5111593;28;20036;-82
2021/07/15 04:12:07;;;;;;;12.77;7.72;;;18.40;99.90;;;;;;5112789;28;20051;-82
2021/07/15 04:15:10;;;;;;;9.75;6.57;;;18.40;99.90;;;;;;5111405;28;20027;-82
2021/07/15 04:17:51;;;;;;;11.77;7.32;;;18.50;99.90;;;;;;5115501;28;20027;-82
2021/07/15 04:20:23;;;;;;;14.73;7.18;;;18.40;99.90;;;;;;5115395;28;20015;-83
2021/07/15 04:22:57;;;;;;;16.60;7.78;;;18.40;99.90;;;;;;5116201;28;20028;-83
2021/07/15 04:25:24;;;;;;;18.85;8.30;;;18.40;99.90;;;;;;5115273;28;20066;-83
2021/07/15 04:27:55;;;;;;;12.38;7.78;;;18.50;99.90;;;;;;5114416;28;20024;-83
2021/07/15 04:30:22;;;;;;;14.52;8.50;;;18.50;99.90;;;;;;5115786;28;20059;-83
2021/07/15 04:32:53;;;;;;;14.52;6.60;;;18.60;99.90;;;;;;5113159;28;20026;-83
2021/07/15 04:35:21;;;;;;;10.10;6.90;;;18.60;99.90;;;;;;5113859;28;20019;-83
2021/07/15 04:37:48;;;;;;;11.60;6.68;;;18.60;99.90;;;;;;5112692;28;20119;-83
2021/07/15 04:40:18;;;;;;;9.73;6.22;;;18.70;99.90;;;;;;5113042;28;20027;-83
2021/07/15 04:42:46;;;;;;;15.57;6.93;;;18.70;99.90;;;;;;5113819;28;20026;-83
2021/07/15 04:45:15;;;;;;;9.55;6.65;;;18.70;99.90;;;;;;5112914;28;20027;-83
2021/07/15 04:47:44;;;;;;;11.25;6.78;;;18.80;99.90;;;;;;5111903;28;20131;-83
2021/07/15 04:50:14;;;;;;;11.80;7.07;;;18.80;99.90;;;;;;5111958;28;20028;-83
2021/07/15 04:52:42;;;;;;;9.88;6.95;;;18.80;99.90;;;;;;5109786;28;20020;-83
2021/07/15 04:55:09;;;;;;;8.05;5.60;;;18.90;99.90;;;;;;5109533;28;20031;-83
2021/07/15 04:57:36;;;;;;;10.55;5.15;;;18.90;99.90;;;;;;5109321;28;20365;-83
2021/07/15 05:00:09;;;;;;;9.10;6.20;;;18.90;99.90;;;;;;5109710;28;20118;-83
2021/07/15 05:02:35;;;;;;;;;;;18.80;99.90;;;;;;5110251;28;20031;-83
2021/07/15 05:05:02;;;;;;;11.73;7.15;;;18.80;99.90;;;;;;5110825;28;20343;-83
2021/07/15 05:07:28;;;;;;;11.75;7.40;;;18.80;99.90;;;;;;5112020;28;20028;-83
2021/07/15 05:09:53;;;;;;;9.07;6.32;;;18.80;99.90;;;;;;5112228;28;20031;-83
2021/07/15 05:12:19;;;;;;;11.57;6.72;;;18.80;99.90;;;;;;5112065;28;20019;-83
2021/07/15 05:14:44;;;;;;;11.13;7.00;;;18.80;99.90;;;;;;5113615;28;20095;-84
2021/07/15 05:17:11;;;;;;;10.55;7.85;;;18.80;99.90;;;;;;5114675;28;20106;-83
2021/07/15 05:19:37;;;;;;;10.15;7.45;;;18.80;99.90;;;;;;5114090;28;20024;-84
2021/07/15 05:22:04;;;;;;;14.95;7.78;;;18.80;99.90;;;;;;5113954;28;20484;-83
2021/07/15 05:24:29;;;;;;;9.80;7.65;;;18.80;99.90;;;;;;5114256;28;20388;-81
2021/07/15 05:26:55;;;;;;;10.88;8.95;;;18.80;99.90;;;;;;5114418;28;20015;-81
2021/07/15 05:29:21;;;;;;;13.70;9.73;;;18.80;99.90;;;;;;5113871;28;20458;-80
2021/07/15 05:31:46;;;;;;;13.80;8.98;;;18.80;99.90;;;;;;5101440;27;20161;-81
2021/07/15 05:34:14;;;;;;;11.23;9.65;;;18.80;99.90;;;;;;5106491;28;20016;-80
2021/07/15 05:36:40;;;;;;;14.35;9.65;;;18.80;99.90;;;;;;5111356;28;20457;-80
2021/07/15 05:39:06;;;;;;;14.52;10.05;;;18.80;99.90;;;;;;5110115;28;20043;-79
2021/07/15 05:41:32;;;;;;;14.02;10.57;;;18.90;99.90;;;;;;5113731;28;20019;-80
2021/07/15 05:43:57;;;;;;;14.82;10.85;;;19.00;99.90;;;;;;5114920;28;20440;-80
2021/07/15 05:46:23;;;;;;;20.50;10.77;;;19.00;99.90;;;;;;5115013;28;20034;-80
2021/07/15 05:48:49;;;;;;;11.82;9.25;;;19.00;99.90;;;;;;5100092;28;20388;-78
2021/07/15 05:51:14;;;;;;;16.02;9.95;;;19.00;99.90;;;;;;5103805;28;20303;-78
2021/07/15 05:53:40;;;;;;;16.98;10.52;;;19.00;99.90;;;;;;5093388;28;20057;-79
2021/07/15 05:56:06;;;;;;;16.83;9.85;;;19.00;99.90;;;;;;5092778;28;20019;-80
2021/07/15 05:58:32;;;;;;;13.20;9.32;;;19.10;99.90;;;;;;5101110;28;20028;-80
2021/07/15 06:00:57;;;;;;;13.20;9.35;;;19.00;99.90;;;;;;5108371;28;20023;-80
2021/07/15 06:03:23;;;;;;;14.27;8.60;;;19.00;99.90;;;;;;5104152;28;20066;-80
2021/07/15 06:05:48;;;;;;;15.18;10.20;;;19.00;99.90;;;;;;5102762;28;20115;-80
2021/07/15 06:08:14;;;;;;;15.20;9.27;;;19.00;99.90;;;;;;5090927;28;20028;-80
2021/07/15 06:10:40;;;;;;;14.60;8.95;;;19.10;99.90;;;;;;5093800;28;20035;-82
2021/07/15 06:13:05;;;;;;;15.95;8.63;;;19.00;99.90;;;;;;5095132;28;20115;-81
2021/07/15 06:15:31;;;;;;;11.63;8.55;;;19.00;99.90;;;;;;5104349;28;20532;-82
2021/07/15 06:17:58;;;;;;;14.13;8.63;;;19.00;99.90;;;;;;5112376;27;20030;-80
2021/07/15 06:20:24;;;;;;;13.02;8.63;;;18.90;99.90;;;;;;5112334;28;20031;-80
2021/07/15 06:22:49;;;;;;;15.65;8.57;;;19.00;99.90;;;;;;5113213;28;20034;-80
2021/07/15 06:25:16;;;;;;;15.00;9.07;;;19.00;99.90;;;;;;5111117;28;20119;-80
2021/07/15 06:27:42;;;;;;;17.98;9.93;;;19.00;99.90;;;;;;5103324;28;20024;-80
2021/07/15 06:30:10;;;;;;;18.77;9.82;;;19.00;99.90;;;;;;5089714;28;20301;-80
2021/07/15 06:32:35;;;;;;;15.93;10.63;;;19.10;99.90;;;;;;5110001;28;20032;-80
2021/07/15 06:35:02;;;;;;;17.02;10.73;;;19.10;99.90;;;;;;5112897;28;20429;-80
2021/07/15 06:37:35;;;;;;;13.07;10.13;;;19.20;99.90;;;;;;5103717;28;20016;-81
2021/07/15 06:40:05;;;;;;;15.57;9.00;;;19.30;99.90;;;;;;5092418;28;20034;-80
2021/07/15 06:42:32;;;;;;;16.85;8.18;;;19.40;99.90;;;;;;5091056;28;20020;-80
2021/07/15 06:44:58;;;;;;;11.38;8.10;;;19.40;99.90;;;;;;5113079;27;20047;-81
2021/07/15 06:47:23;;;;;;;9.85;7.70;;;19.40;99.90;;;;;;5111786;28;20444;-80
2021/07/15 06:49:49;;;;;;;11.30;8.20;;;19.50;99.90;;;;;;5112823;28;20039;-80
2021/07/15 06:52:15;;;;;;;18.40;7.80;;;19.50;99.90;;;;;;5111949;27;20024;-82
2021/07/15 06:54:40;;;;;;;12.65;7.90;;;19.60;99.90;;;;;;5099058;28;20047;-80
2021/07/15 06:57:07;;;;;;;11.57;8.05;;;19.60;99.90;;;;;;5097048;28;20023;-81
2021/07/15 06:59:32;;;;;;;12.73;8.32;;;19.60;99.90;;;;;;5092041;28;20463;-80
2021/07/15 07:01:58;;;;;;;13.40;8.02;;;19.60;99.90;;;;;;5091633;28;20104;-81
2021/07/15 07:04:24;;;;;;;11.93;7.45;;;19.60;99.90;;;;;;5091216;28;20036;-80
2021/07/15 07:06:49;;;;;;;15.13;7.65;;;19.60;99.90;;;;;;5090691;28;20023;-80
2021/07/15 07:09:16;;;;;;;12.18;8.10;;;19.60;99.90;;;;;;5091297;28;20096;-80
2021/07/15 07:11:42;;;;;;;11.38;8.43;;;19.50;99.90;;;;;;5097023;28;20024;-80
2021/07/15 07:14:08;;;;;;;14.18;8.27;;;19.50;99.90;;;;;;5089907;28;20118;-80
2021/07/15 07:16:33;;;;;;;12.23;9.13;;;19.40;99.90;;;;;;5091080;28;20054;-80
2021/07/15 07:18:59;;;;;;;10.02;7.88;;;19.40;99.90;;;;;;5092344;28;20474;-81
2021/07/15 07:21:25;;;;;;;10.15;8.32;;;19.40;99.90;;;;;;5090947;28;20024;-81
2021/07/15 07:34:34;;;;;;;13.40;7.72;;;19.20;99.90;;;;;;5130961;27;20450;-80
2021/07/15 07:36:59;;;;;;;13.00;7.80;;;19.00;99.90;;;;;;5130999;27;20023;-80
2021/07/15 07:39:26;;;;;;;10.98;7.07;;;18.90;99.90;;;;;;5124621;27;20464;-80
2021/07/15 07:41:51;;;;;;;6.55;5.70;;;18.90;99.90;;;;;;5111970;27;20062;-79
2021/07/15 07:44:17;;;;;;;8.63;5.10;;;18.80;99.90;;;;;;5111373;28;20020;-79
2021/07/15 07:46:43;;;;;;;5.53;3.35;;;18.70;99.90;;;;;;5110413;28;20034;-80
2021/07/15 07:49:09;;;;;;;5.03;2.97;;;18.50;99.90;;;;;;5109043;28;20103;-80
2021/07/15 07:51:35;;;;;;;5.38;2.78;;;18.40;99.90;;;;;;5108802;28;20048;-79
2021/07/15 07:54:02;;;;;;;3.15;2.53;;;18.20;99.90;;;;;;5108956;28;20065;-80
2021/07/15 07:56:27;;;;;;;2.75;2.42;;;18.20;99.90;;;;;;5111618;28;20400;-81
2021/07/15 07:58:54;;;;;;;3.58;2.53;;;18.10;99.90;;;;;;5128863;27;20019;-81
2021/07/15 08:01:20;;;;;;;4.05;2.58;;;18.00;99.90;;;;;;5129213;27;20388;-81
2021/07/15 08:03:46;;;;;;;6.90;3.85;;;18.00;99.90;;;;;;5106566;27;20055;-80
2021/07/15 08:06:13;;;;;;;5.80;3.83;;;17.90;99.90;;;;;;5106177;28;20488;-82
2021/07/15 08:08:40;;;;;;;6.75;4.70;;;17.80;99.90;;;;;;5123742;27;20121;-83
2021/07/15 08:11:06;;;;;;;8.35;5.25;;;17.80;99.90;;;;;;5128307;27;20034;-82
2021/07/15 08:13:32;;;;;;;6.97;4.68;;;17.80;99.90;;;;;;5115522;28;20067;-82
2021/07/15 08:15:58;;;;;;;6.75;4.90;;;17.80;99.90;;;;;;5128424;27;20100;-82
2021/07/15 08:18:24;;;;;;;8.82;5.30;;;17.80;99.90;;;;;;5114499;27;20035;-82
2021/07/15 08:20:50;;;;;;;9.52;5.25;;;17.80;99.90;;;;;;5107985;28;20061;-82
2021/07/15 08:23:16;;;;;;;9.02;5.43;;;17.80;99.90;;;;;;5105403;28;20039;-83
2021/07/15 08:25:42;;;;;;;7.28;5.18;;;17.90;99.90;;;;;;5108021;27;20058;-84
2021/07/15 08:28:08;;;;;;;7.45;4.95;;;17.90;99.90;;;;;;5113326;28;20035;-83
2021/07/15 08:30:34;;;;;;;9.00;6.20;;;17.90;99.90;;;;;;5126387;27;20023;-83
2021/07/15 08:32:59;;;;;;;9.75;5.53;;;17.90;99.90;;;;;;5126126;27;20484;-83
2021/07/15 08:35:28;;;;;;;7.07;5.43;;;17.90;99.90;;;;;;5114475;27;20019;-83
2021/07/15 08:37:55;;;;;;;10.32;5.63;;;17.90;99.90;;;;;;5098511;28;20036;-83
2021/07/15 08:40:25;;;;;;;10.10;5.18;;;17.90;99.90;;;;;;5096444;28;20054;-83
2021/07/15 08:42:52;;;;;;;7.25;4.93;;;17.90;99.90;;;;;;5110046;28;20108;-83
2021/07/15 08:45:18;;;;;;;6.10;5.00;;;17.90;99.90;;;;;;5105600;28;20024;-83
2021/07/15 08:47:44;;;;;;;7.45;4.60;;;17.90;99.90;;;;;;5098248;28;20043;-83
2021/07/15 08:50:15;;;;;;;7.30;5.22;;;17.80;99.90;;;;;;5112444;28;20026;-83
2021/07/15 08:52:45;;;;;;;7.97;5.60;;;17.80;99.90;;;;;;5107418;27;20023;-83
2021/07/15 08:57:41;;;;;;;6.50;4.88;;;17.70;99.90;;;;;;5111109;28;20040;-84
2021/07/15 09:00:12;;;;;;;12.25;5.20;;;17.80;99.90;;;;;;5096548;28;20016;-85
2021/07/15 09:02:39;;;;;;;7.05;5.55;;;17.70;99.90;;;;;;5092926;28;20036;-83
2021/07/15 09:05:06;;;;;;;6.30;4.63;;;17.70;99.90;;;;;;5102007;28;20377;-83
2021/07/15 09:07:32;;;;;;;6.72;4.55;;;17.70;99.90;;;;;;5100648;28;20124;-84
2021/07/15 09:09:58;;;;;;;6.78;4.45;;;17.80;99.90;;;;;;5100673;28;20036;-83
2021/07/15 09:12:24;;;;;;;7.10;4.65;;;17.80;99.90;;;;;;5101013;28;20020;-84
2021/07/15 09:14:52;;;;;;;7.03;4.90;;;17.90;99.90;;;;;;5099632;28;20024;-84
2021/07/15 09:17:30;;;;;;;6.38;4.90;;;18.00;99.90;;;;;;5101224;28;20016;-83
2021/07/15 09:19:57;;;;;;;7.95;5.35;;;18.10;99.90;;;;;;5101965;28;20086;-83
2021/07/15 09:22:23;;;;;;;7.03;4.85;;;18.30;99.90;;;;;;5098802;28;20097;-83
2021/07/15 09:24:50;;;;;;;6.55;4.13;;;18.50;99.90;;;;;;5102868;28;20043;-82
2021/07/15 09:27:24;;;;;;;8.30;4.75;;;18.60;99.90;;;;;;5101062;28;20376;-83
2021/07/15 09:30:10;;;;;;;4.95;3.75;;;18.80;99.90;;;;;;5100994;28;20032;-83
2021/07/15 09:32:56;;;;;;;9.60;3.90;;;19.00;99.90;;;;;;5099572;28;20020;-82
2021/07/15 09:35:30;;;;;;;5.18;3.53;;;19.20;99.90;;;;;;5101574;28;20052;-84
2021/07/15 09:38:07;;;;;;;5.80;4.00;;;19.30;99.90;;;;;;5100325;28;20055;-83
2021/07/15 09:40:41;;;;;;;5.47;3.45;;;19.40;99.90;;;;;;5101529;28;20011;-83
2021/07/15 09:43:11;;;;;;;5.28;3.78;;;19.50;99.90;;;;;;5095530;28;20043;-84
2021/07/15 09:45:37;;;;;;;3.70;3.15;;;19.60;99.90;;;;;;5100285;28;20473;-84
2021/07/15 09:48:12;;;;;;;5.32;3.45;;;19.70;99.90;;;;;;5098414;28;20020;-83
2021/07/15 09:50:39;;;;;;;8.45;3.85;;;19.90;99.90;;;;;;5102115;28;20023;-83
2021/07/15 09:53:15;;;;;;;6.47;4.32;;;20.00;99.90;;;;;;5101095;28;20366;-84
2021/07/15 09:55:41;;;;;;;4.28;3.40;;;20.00;99.90;;;;;;5101656;28;20477;-83
2021/07/15 09:58:11;;;;;;;7.93;3.25;;;20.10;99.90;;;;;;5098433;28;20068;-84
2021/07/15 10:00:36;;;;;;;5.47;3.42;;;20.10;99.90;;;;;;5102602;28;20051;-83
2021/07/15 10:03:04;;;;;;;6.32;3.75;;;20.10;99.90;;;;;;5091146;28;20055;-83
2021/07/15 10:05:30;;;;;;;6.45;3.85;;;20.20;99.90;;;;;;5098875;28;20035;-83
2021/07/15 10:08:03;;;;;;;6.68;3.67;;;20.20;99.90;;;;;;5099835;28;20121;-84
2021/07/15 10:10:29;;;;;;;4.32;3.15;;;20.30;99.90;;;;;;5102793;28;20156;-84
2021/07/15 10:12:55;;;;;;;5.78;3.60;;;20.40;99.90;;;;;;5111483;28;20028;-80
2021/07/15 10:15:24;;;;;;;3.72;3.38;;;20.50;99.90;;;;;;5111314;28;20039;-82
2021/07/15 10:17:50;;;;;;;3.80;3.45;;;20.60;99.90;;;;;;5110432;28;20016;-82
2021/07/15 10:20:17;;;;;;;5.63;4.88;;;20.70;99.90;;;;;;5110422;28;20031;-81
2021/07/15 10:22:44;;;;;;;5.70;3.75;;;20.80;99.90;;;;;;5112275;28;20400;-81
2021/07/15 10:25:11;;;;;;;5.82;3.42;;;20.90;99.90;;;;;;5099077;28;20501;-81
2021/07/15 10:27:40;;;;;;;5.95;3.75;;;21.10;99.90;;;;;;5090791;28;20035;-80
2021/07/15 10:30:08;;;;;;;5.20;3.03;;;21.30;99.90;;;;;;5088507;28;20072;-81
2021/07/15 10:32:36;;;;;;;4.40;3.53;;;21.30;99.90;;;;;;5089578;28;20106;-81
2021/07/15 10:35:08;;;;;;;6.80;3.50;;;21.50;99.90;;;;;;5090162;28;20032;-81
2021/07/15 10:37:40;;;;;;;3.60;3.30;;;21.70;99.90;;;;;;5091537;28;20031;-81
2021/07/15 10:40:13;;;;;;;3.83;3.42;;;21.90;99.90;;;;;;5109553;28;20507;-81
2021/07/15 10:42:39;;;;;;;3.97;3.30;;;21.90;99.90;;;;;;5112261;28;20110;-81
2021/07/15 10:45:06;;;;;;;6.30;3.67;;;22.00;99.90;;;;;;5109113;28;20028;-81
2021/07/15 10:47:34;;;;;;;6.63;3.38;;;22.30;99.90;;;;;;5107868;28;20089;-81
2021/07/15 10:50:00;;;;;;;4.55;3.40;;;22.50;99.90;;;;;;5104205;28;20036;-81
2021/07/15 10:52:27;;;;;;;3.28;2.97;;;22.80;99.90;;;;;;5099041;28;20080;-81
2021/07/15 10:54:54;;;;;;;4.78;3.03;;;22.90;99.90;;;;;;5103638;28;20024;-81
2021/07/15 10:57:21;;;;;;;6.05;3.35;;;23.10;99.90;;;;;;5110671;28;20023;-80
2021/07/15 10:59:47;;;;;;;5.85;3.65;;;23.30;99.90;;;;;;5111596;28;20431;-81
2021/07/15 11:02:26;;;;;;;4.78;3.45;;;23.40;99.90;;;;;;5108651;28;20069;-80
2021/07/15 11:04:53;;;;;;;4.70;4.18;;;23.40;99.90;;;;;;5105497;28;20063;-80
2021/07/15 11:07:19;;;;;;;4.60;4.10;;;23.50;99.90;;;;;;5107595;28;20108;-80
2021/07/15 11:09:46;;;;;;;7.50;3.83;;;23.70;99.90;;;;;;5089974;28;20111;-80
2021/07/15 11:12:38;;;;;;;5.53;4.45;;;23.90;99.90;;;;;;5100915;28;20077;-80
2021/07/15 11:15:11;;;;;;;5.55;4.13;;;24.00;99.90;;;;;;5109605;28;20089;-81
2021/07/15 11:17:51;;;;;;;6.03;5.30;;;24.00;99.90;;;;;;5107930;28;20027;-81
2021/07/15 11:20:32;;;;;;;6.22;4.53;;;24.10;99.90;;;;;;5090552;28;20028;-80
2021/07/15 11:22:58;;;;;;;6.40;4.78;;;24.10;99.90;;;;;;5091365;28;20050;-81
2021/07/15 11:25:38;;;;;;;6.97;4.75;;;24.00;99.90;;;;;;5091980;28;20032;-80
2021/07/15 11:28:10;;;;;;;6.55;5.10;;;24.00;99.90;;;;;;5091294;28;20028;-80
2021/07/15 11:30:36;;;;;;;6.97;5.80;;;23.90;99.90;;;;;;5089575;28;20040;-80
2021/07/15 11:33:26;;;;;;;7.82;5.57;;;23.90;99.90;;;;;;5091004;28;20097;-81
2021/07/15 11:36:00;;;;;;;7.70;4.88;;;23.90;99.90;;;;;;5087388;28;20038;-80
2021/07/15 11:38:33;;;;;;;7.97;5.25;;;23.80;99.90;;;;;;5090197;28;20460;-82
2021/07/15 11:41:11;;;;;;;8.77;6.03;;;23.90;99.90;;;;;;5091814;28;20031;-82
2021/07/15 11:43:57;;;;;;;9.70;4.85;;;24.00;99.90;;;;;;5092606;28;20169;-82
2021/07/15 11:46:38;;;;;;;6.10;5.47;;;24.10;99.90;;;;;;5089840;28;20024;-81
2021/07/15 11:49:19;;;;;;;8.35;5.47;;;24.40;99.90;;;;;;5089343;28;20440;-81
2021/07/15 11:51:48;;;;;;;7.28;5.82;;;24.40;98.20;;;;;;5090971;28;20016;-80
2021/07/15 11:54:14;;;;;;;7.93;5.57;;;24.40;93.70;;;;;;5106352;28;20035;-80
2021/07/15 11:56:41;;;;;;;9.77;6.00;;;24.40;97.00;;;;;;5111608;28;20099;-81
2021/07/15 11:59:07;;;;;;;7.90;5.97;;;24.60;97.10;;;;;;5108233;27;20388;-81
2021/07/15 12:01:35;;;;;;;7.97;5.95;;;24.70;97.50;;;;;;5110668;28;20062;-81
2021/07/15 12:04:03;;;;;;;10.40;5.68;;;24.70;95.70;;;;;;5105628;28;20036;-81
2021/07/15 12:06:30;;;;;;;9.48;6.00;;;24.80;95.30;;;;;;5105124;28;20542;-81
2021/07/15 12:09:09;;;;;;;13.63;7.00;;;24.90;93.30;;;;;;5090968;28;20028;-83
2021/07/15 12:11:36;;;;;;;7.80;6.45;;;24.90;93.30;;;;;;5101865;28;20422;-82
2021/07/15 12:14:03;;;;;;;8.57;6.72;;;25.00;95.80;;;;;;5113347;28;20507;-80
2021/07/15 12:16:32;;;;;;;9.25;6.82;;;24.90;92.90;;;;;;5112364;28;20491;-82
2021/07/15 12:19:05;;;;;;;8.82;7.47;;;25.10;96.30;;;;;;5113349;28;20047;-81
2021/07/15 12:21:32;;;;;;;10.27;7.07;;;25.10;94.20;;;;;;5113267;28;20023;-80
2021/07/15 12:24:16;;;;;;;12.27;7.32;;;25.20;99.30;;;;;;5094554;27;20046;-81
2021/07/15 12:26:43;;;;;;;12.45;7.63;;;25.10;95.40;;;;;;5094535;28;20020;-81
2021/07/15 12:29:15;;;;;;;14.40;7.22;;;25.10;97.30;;;;;;5093276;28;20087;-80
2021/07/15 12:31:42;;;;;;;13.35;8.38;;;25.20;98.80;;;;;;5093775;28;20020;-81
2021/07/15 12:34:10;;;;;;;9.45;7.90;;;25.30;99.90;;;;;;5093176;28;20059;-80
2021/07/15 12:36:39;;;;;;;11.23;7.18;;;25.40;95.40;;;;;;5095187;28;20024;-81
2021/07/15 12:39:10;;;;;;;14.98;8.43;;;25.40;93.30;;;;;;5093643;28;20057;-84
2021/07/15 12:41:38;;;;;;;11.18;8.02;;;25.60;91.60;;;;;;5091794;28;20024;-83
2021/07/15 12:44:13;;;;;;;15.80;9.65;;;25.70;94.70;;;;;;5093749;28;20028;-81
2021/07/15 12:46:44;;;;;;;15.38;9.23;;;25.80;90.80;;;;;;5093392;28;20047;-81
2021/07/15 12:49:18;;;;;;;15.48;8.50;;;26.00;93.60;;;;;;5108976;28;20034;-80
2021/07/15 12:51:50;;;;;;;12.15;9.23;;;26.00;90.70;;;;;;5114424;28;20404;-81
2021/07/15 12:54:28;;;;;;;12.07;8.68;;;26.00;88.90;;;;;;5108229;28;20118;-80
2021/07/15 12:56:54;;;;;;;12.68;8.88;;;26.20;90.30;;;;;;5109693;28;20024;-81
2021/07/15 12:59:24;;;;;;;15.57;9.27;;;26.20;90.00;;;;;;5092512;28;20495;-81
2021/07/15 13:01:49;;;;;;;12.05;9.18;;;26.10;92.80;;;;;;5094745;28;20550;-81
2021/07/15 13:04:20;;;;;;;12.90;9.50;;;26.30;89.30;;;;;;5110392;27;20118;-81